Latest Weather Observations for Ballera

IDQ60801

Issued at 1:32 pm EST Wednesday 22 February 2017 (issued every 30 minutes, with the page automatically refreshed every 10 minutes)

About weather observations | Map of weather stations | Latest weather observations for QLD | Other Formats
Station Details ID: 045009 Name: BALLERA GAS FIELD Lat: -27.40 Lon: 141.81 Height: 114.5 m
Data from the previous 72 hours. | See also: Recent months at Ballera
Date/Time
EST
Temp
°C
App
Temp
°C
Dew
Point
°C
Rel
Hum
%
Delta-T
°C
Wind Press
QNH
hPa
Press
MSL
hPa
Rain since
9am
mm
Dir  Spd
km/h
Gust
km/h
Spd
kts
Gust
kts
22/01:00pm 38.7 33.7 1.6 10 19.3 N 17 28 9 15 1011.5 1010.7 0.0
22/12:30pm 36.9 31.4 0.3 10 18.5 NW 19 33 10 18 1012.1 1011.2 0.0
22/12:00pm 38.2 32.8 2.6 11 18.8 NNW 20 30 11 16 1012.6 1011.7 0.0
22/11:30am 37.0 31.1 4.0 13 17.6 N 24 32 13 17 1013.0 1012.1 0.0
22/11:00am 35.6 29.2 5.0 15 16.5 N 28 35 15 19 1013.4 1012.5 0.0
22/10:30am 35.0 28.8 6.3 17 15.7 N 28 37 15 20 1013.6 1012.7 0.0
22/10:00am 34.3 29.0 6.6 18 15.2 N 24 32 13 17 1013.8 1012.9 0.0
22/09:30am 33.0 27.3 2.9 15 15.5 NNE 22 28 12 15 1013.8 1012.9 0.0
22/09:00am 31.0 24.7 1.4 15 14.6 NE 24 28 13 15 1013.7 1012.8 0.0
22/08:30am 29.9 23.9 -1.5 13 14.7 NE 20 26 11 14 1013.7 1012.8 0.0
22/08:00am 27.7 21.7 -3.2 13 13.8 ENE 19 22 10 12 1013.5 1012.6 0.0
22/07:30am 25.2 20.3 -3.2 15 12.4 E 13 15 7 8 1013.3 1012.4 0.0
22/07:00am 22.7 17.9 -2.8 18 11.0 E 13 15 7 8 1013.0 1012.1 0.0
22/06:30am 21.4 15.8 -3.1 19 10.4 ESE 17 19 9 10 1012.8 1011.9 0.0
22/06:00am 21.2 15.9 -3.3 19 10.3 ESE 15 17 8 9 1012.5 1011.6 0.0
22/05:30am 21.4 16.5 -3.1 19 10.4 ESE 13 13 7 7 1012.4 1011.5 0.0
22/05:00am 21.8 17.4 -2.8 19 10.5 ESE 11 13 6 7 1012.4 1011.5 0.0
22/04:30am 21.5 16.7 -2.4 20 10.3 ESE 13 15 7 8 1012.3 1011.4 0.0
22/04:00am 20.9 15.7 -2.9 20 10.1 ESE 15 17 8 9 1012.1 1011.2 0.0
22/03:30am 21.5 16.0 -2.4 20 10.3 ESE 17 19 9 10 1012.0 1011.1 0.0
22/03:00am 21.8 16.7 -2.1 20 10.3 SE 15 15 8 8 1012.1 1011.2 0.0
22/02:30am 22.0 16.4 -2.7 19 10.6 SE 17 19 9 10 1012.2 1011.3 0.0
22/02:00am 22.4 17.3 -2.3 19 10.7 SE 15 17 8 9 1012.3 1011.4 0.0
22/01:30am 22.9 18.1 -2.6 18 11.0 SE 13 15 7 8 1012.5 1011.6 0.0
22/01:00am 23.2 18.6 -4.0 16 11.5 SE 11 13 6 7 1012.6 1011.7 0.0
22/12:30am 24.7 20.2 -3.6 15 12.2 SE 11 13 6 7 1013.0 1012.1 0.0
22/12:00am 25.0 20.5 -3.4 15 12.3 SE 11 13 6 7 1013.0 1012.1 0.0
 
Date/Time
EST
Temp
°C
App
Temp
°C
Dew
Point
°C
Rel
Hum
%
Delta-T
°C
Wind Press
QNH
hPa
Press
MSL
hPa
Rain since
9am
mm
Dir  Spd
km/h
Gust
km/h
Spd
kts
Gust
kts
21/11:30pm 25.1 20.0 -5.2 13 12.7 SE 13 17 7 9 1013.0 1012.1 0.0
21/11:00pm 25.8 21.1 -4.7 13 13.0 SE 11 13 6 7 1013.1 1012.2 0.0
21/10:30pm 26.5 21.4 -5.2 12 13.5 SE 13 13 7 7 1013.4 1012.5 0.0
21/10:00pm 27.0 21.9 -4.8 12 13.7 SE 13 15 7 8 1013.5 1012.6 0.0
21/09:30pm 27.8 22.7 -5.3 11 14.2 SE 13 17 7 9 1013.4 1012.5 0.0
21/09:00pm 28.7 23.5 -5.9 10 14.8 ESE 13 17 7 9 1013.2 1012.3 0.0
21/08:30pm 29.5 24.4 -5.3 10 15.2 ESE 13 15 7 8 1013.0 1012.1 0.0
21/08:00pm 30.6 25.4 -5.8 9 15.9 ESE 13 13 7 7 1012.8 1011.9 0.0
21/07:30pm 32.4 26.8 -6.0 8 16.9 E 15 17 8 9 1012.5 1011.6 0.0
21/07:00pm 33.7 28.4 -6.8 7 17.8 ESE 13 17 7 9 1012.3 1011.4 0.0
21/06:30pm 34.6 29.4 -6.2 7 18.2 ESE 13 20 7 11 1012.1 1011.2 0.0
21/06:00pm 34.8 29.6 -6.0 7 18.3 E 13 19 7 10 1012.0 1011.1 0.0
21/05:30pm 34.8 29.2 -6.0 7 18.3 SE 15 22 8 12 1011.9 1011.0 0.0
21/05:00pm 35.4 30.6 -5.6 7 18.6 SE 11 22 6 12 1011.8 1010.9 0.0
21/04:30pm 35.3 30.5 -5.7 7 18.6 E 11 22 6 12 1012.0 1011.1 0.0
21/04:00pm 35.2 29.7 -5.7 7 18.5 ESE 15 22 8 12 1012.1 1011.2 0.0
21/03:30pm 35.5 31.1 -5.5 7 18.7 ESE 9 20 5 11 1012.3 1011.4 0.0
21/03:00pm 34.8 30.2 -4.3 8 18.1 SSE 11 20 6 11 1012.7 1011.8 0.0
21/02:30pm 33.9 30.2 -4.9 8 17.6 SSE 6 11 3 6 1013.2 1012.3 0.0
21/02:00pm 34.8 29.4 -4.3 8 18.1 NE 15 22 8 12 1013.6 1012.7 0.0
21/01:30pm 33.8 28.3 -5.0 8 17.6 NE 15 26 8 14 1014.0 1013.1 0.0
21/01:00pm 33.0 28.0 -4.0 9 16.9 ENE 13 20 7 11 1014.4 1013.5 0.0
21/12:30pm 32.4 27.8 -4.5 9 16.7 E 11 19 6 10 1014.9 1014.1 0.0
21/12:00pm 32.4 28.3 -3.1 10 16.4 E 9 20 5 11 1015.3 1014.5 0.0
21/11:30am 32.2 26.9 -3.2 10 16.3 ENE 15 24 8 13 1015.8 1015.0 0.0
21/11:00am 31.3 25.5 -1.5 12 15.5 ESE 19 28 10 15 1016.1 1015.3 0.0
21/10:30am 30.7 24.4 -0.8 13 15.0 E 22 32 12 17 1016.6 1015.8 0.0
21/10:00am 29.6 23.5 0.2 15 14.1 E 22 32 12 17 1016.9 1016.1 0.0
21/09:30am 28.4 22.3 0.2 16 13.4 E 22 28 12 15 1017.0 1016.2 0.0
21/09:00am 26.9 20.4 0.6 18 12.5 ESE 24 30 13 16 1016.9 1016.1 0.0
21/08:30am 25.7 19.3 1.1 20 11.7 E 24 32 13 17 1016.8 1016.0 0.0
21/08:00am 24.0 18.0 1.0 22 10.7 E 22 28 12 15 1016.6 1015.8 0.0
21/07:30am 22.4 17.4 1.4 25 9.8 ESE 17 20 9 11 1016.7 1015.9 0.0
21/07:00am 20.6 15.6 1.5 28 8.8 ESE 17 19 9 10 1016.3 1015.5 0.0
21/06:30am 19.1 14.5 1.6 31 8.0 ESE 15 19 8 10 1016.0 1015.2 0.0
21/06:00am 19.3 14.4 1.8 31 8.0 ESE 17 20 9 11 1015.7 1014.9 0.0
21/05:30am 18.8 13.9 1.8 32 7.8 ESE 17 19 9 10 1015.3 1014.5 0.0
21/05:00am 19.2 14.3 1.7 31 8.0 ESE 17 19 9 10 1015.3 1014.5 0.0
21/04:30am 20.0 14.7 1.9 30 8.4 ESE 19 24 10 13 1015.1 1014.3 0.0
21/04:00am 20.4 14.9 1.8 29 8.6 SE 20 26 11 14 1014.8 1013.9 0.0
21/03:30am 20.5 14.9 1.4 28 8.8 SE 20 24 11 13 1014.6 1013.7 0.0
21/03:00am 21.0 15.6 1.3 27 9.0 SE 19 22 10 12 1014.4 1013.5 0.0
21/02:30am 21.6 16.0 1.3 26 9.4 SE 20 24 11 13 1014.2 1013.3 0.0
21/02:00am 21.7 16.3 1.4 26 9.4 SE 19 24 10 13 1014.1 1013.2 0.0
21/01:30am 22.1 16.7 1.2 25 9.7 SE 19 24 10 13 1014.4 1013.5 0.0
21/01:00am 22.2 17.1 0.7 24 9.9 SE 17 20 9 11 1014.6 1013.7 0.0
21/12:30am 23.1 17.5 0.9 23 10.3 SE 20 26 11 14 1014.7 1013.8 0.0
21/12:00am 23.6 17.9 0.7 22 10.6 SE 20 24 11 13 1015.0 1014.2 0.0
 
Date/Time
EST
Temp
°C
App
Temp
°C
Dew
Point
°C
Rel
Hum
%
Delta-T
°C
Wind Press
QNH
hPa
Press
MSL
hPa
Rain since
9am
mm
Dir  Spd
km/h
Gust
km/h
Spd
kts
Gust
kts
20/11:30pm 24.1 18.4 0.4 21 11.0 SE 20 24 11 13 1015.1 1014.3 0.0
20/11:00pm 24.4 18.6 0.0 20 11.2 SE 20 24 11 13 1015.1 1014.3 0.0
20/10:30pm 24.8 19.0 -0.4 19 11.6 SSE 20 26 11 14 1014.9 1014.1 0.0
20/10:00pm 24.7 19.3 -1.2 18 11.7 SSE 17 20 9 11 1015.0 1014.2 0.0
20/09:30pm 25.4 20.0 -1.4 17 12.1 SSE 17 20 9 11 1014.8 1013.9 0.0
20/09:00pm 26.2 20.8 -1.6 16 12.6 SSE 17 20 9 11 1014.6 1013.7 0.0
20/08:30pm 27.0 21.2 -1.8 15 13.1 SSE 19 22 10 12 1014.2 1013.3 0.0
20/08:00pm 27.9 21.8 -2.0 14 13.6 SSE 20 26 11 14 1013.8 1012.9 0.0
20/07:30pm 28.7 22.6 -2.4 13 14.2 SSE 20 28 11 15 1013.4 1012.5 0.0
20/07:00pm 29.5 24.3 -2.9 12 14.7 SE 15 22 8 12 1013.1 1012.2 0.0
20/06:30pm 30.2 24.3 -2.3 12 15.0 SSE 19 26 10 14 1012.7 1011.8 0.0
20/06:00pm 30.5 24.5 -3.3 11 15.4 SSE 19 28 10 15 1012.4 1011.5 0.0
20/05:30pm 31.1 24.4 -4.1 10 15.9 SE 22 30 12 16 1012.2 1011.3 0.0
20/05:00pm 30.8 25.0 -4.3 10 15.7 SSE 17 28 9 15 1011.9 1011.0 0.0
20/04:30pm 30.9 24.2 -4.2 10 15.8 SE 22 32 12 17 1011.9 1011.0 0.0
20/04:00pm 31.5 25.4 -3.8 10 16.1 SE 19 26 10 14 1011.8 1010.9 0.0
20/03:30pm 30.6 24.3 -4.4 10 15.6 SSE 20 33 11 18 1012.2 1011.3 0.0
20/03:00pm 30.4 24.9 -2.2 12 15.1 ESE 17 30 9 16 1012.5 1011.6 0.0
20/02:30pm 29.7 24.9 -2.7 12 14.8 SSE 13 22 7 12 1012.7 1011.8 0.0
20/02:00pm 30.5 25.0 -2.1 12 15.1 ESE 17 28 9 15 1013.3 1012.4 0.0
20/01:30pm 28.6 23.2 -1.5 14 13.9 SE 17 26 9 14 1013.7 1012.8 0.0
20/01:00pm 28.7 22.7 -1.4 14 14.0 ESE 20 35 11 19 1014.1 1013.2 0.0
20/12:30pm 28.5 22.8 -0.6 15 13.7 SSE 19 32 10 17 1014.4 1013.5 0.0
20/12:00pm 27.9 21.2 -1.1 15 13.4 ESE 24 41 13 22 1014.9 1014.1 0.0
20/11:30am 26.8 20.9 -1.1 16 12.8 ESE 20 35 11 19 1015.0 1014.2 0.0
20/11:00am 26.7 20.4 -1.2 16 12.8 ESE 22 32 12 17 1015.2 1014.4 0.0
20/10:30am 26.4 20.2 -0.6 17 12.5 ESE 22 37 12 20 1015.4 1014.6 0.0
20/10:00am 25.6 19.0 -0.5 18 12.0 E 24 35 13 19 1015.7 1014.9 0.0
20/09:30am 24.9 18.2 -1.0 18 11.7 E 24 32 13 17 1015.7 1014.9 0.0
20/09:00am 24.0 16.7 -0.3 20 11.1 ESE 28 35 15 19 1015.4 1014.6 0.0
20/08:30am 22.7 16.1 -0.1 22 10.3 ESE 24 32 13 17 1015.4 1014.6 0.0
20/08:00am 21.0 15.2 -0.3 24 9.5 ESE 20 28 11 15 1015.3 1014.5 0.0
20/07:30am 19.4 14.9 -0.6 26 8.7 SE 13 19 7 10 1015.3 1014.5 0.0
20/07:00am 17.7 13.5 -1.0 28 8.0 SSE 11 13 6 7 1014.9 1014.1 0.0
20/06:30am 16.1 11.8 -1.5 30 7.3 SSE 11 13 6 7 1014.6 1013.7 0.0
20/06:00am 16.9 12.3 -1.2 29 7.6 SSE 13 15 7 8 1014.2 1013.3 0.0
20/05:30am 17.7 12.7 -1.0 28 8.0 SSE 15 19 8 10 1013.6 1012.7 0.0
20/05:00am 18.3 12.6 -1.0 27 8.3 SSE 19 22 10 12 1013.3 1012.4 0.0
20/04:30am 18.8 12.9 -1.1 26 8.6 SSE 20 26 11 14 1013.1 1012.2 0.0
20/04:00am 19.4 12.7 -1.1 25 8.9 SSE 24 30 13 16 1013.0 1012.1 0.0
20/03:30am 19.8 13.5 -1.3 24 9.1 SSE 22 30 12 16 1013.0 1012.1 0.0
20/03:00am 20.0 14.0 -1.2 24 9.2 SSE 20 26 11 14 1013.2 1012.3 0.0
20/02:30am 20.0 14.2 -1.2 24 9.2 S 19 24 10 13 1013.7 1012.8 0.0
20/02:00am 20.0 14.2 -1.7 23 9.3 S 19 22 10 12 1014.0 1013.1 0.0
20/01:30am 20.4 14.5 -2.0 22 9.6 S 19 22 10 12 1014.2 1013.3 0.0
20/01:00am 20.9 14.5 -1.6 22 9.8 S 22 26 12 14 1014.4 1013.5 0.0
20/12:30am 21.3 14.9 -1.9 21 10.0 S 22 28 12 15 1014.5 1013.6 0.0
20/12:00am 21.7 15.2 -2.2 20 10.3 S 22 28 12 15 1014.5 1013.6 0.0
 
Date/Time
EST
Temp
°C
App
Temp
°C
Dew
Point
°C
Rel
Hum
%
Delta-T
°C
Wind Press
QNH
hPa
Press
MSL
hPa
Rain since
9am
mm
Dir  Spd
km/h
Gust
km/h
Spd
kts
Gust
kts
19/11:30pm 22.0 15.2 -2.0 20 10.4 S 24 30 13 16 1014.4 1013.5 0.0
19/11:00pm 22.4 15.6 -1.6 20 10.5 S 24 30 13 16 1014.1 1013.2 0.0
19/10:30pm 23.0 15.9 -1.1 20 10.7 S 26 33 14 18 1014.0 1013.1 0.0
19/10:00pm 23.7 16.4 0.1 21 10.8 SSW 28 33 15 18 1013.7 1012.8 0.0
19/09:30pm 24.2 18.1 0.5 21 11.0 S 22 26 12 14 1013.5 1012.6 0.0
19/09:00pm 24.7 19.0 0.3 20 11.3 SSW 20 24 11 13 1013.2 1012.3 0.0
19/08:30pm 25.4 19.5 -0.6 18 11.9 SSW 20 26 11 14 1012.8 1011.9 0.0
19/08:00pm 26.1 19.2 0.0 18 12.2 SSW 26 32 14 17 1012.4 1011.5 0.0
19/07:30pm 26.6 20.0 -0.4 17 12.5 SSW 24 30 13 16 1012.0 1011.1 0.0
19/07:00pm 27.3 19.9 -0.7 16 13.0 SSW 28 37 15 20 1011.4 1010.6 0.0
19/06:30pm 28.3 21.1 -1.7 14 13.8 S 26 33 14 18 1011.0 1010.2 0.0
19/06:00pm 28.8 22.1 -1.3 14 14.0 SSW 24 32 13 17 1010.6 1009.8 0.0
19/05:30pm 28.8 22.8 -1.3 14 14.0 S 20 35 11 19 1010.3 1009.5 0.0
19/05:00pm 29.6 22.1 -1.7 13 14.6 SSW 28 44 15 24 1010.1 1009.3 0.0
19/04:30pm 29.0 22.3 -1.2 14 14.1 SSW 24 33 13 18 1010.3 1009.5 0.0
19/04:00pm 29.9 22.8 -1.5 13 14.7 SSW 26 39 14 21 1010.4 1009.6 0.0
19/03:30pm 28.8 21.7 -1.3 14 14.0 S 26 44 14 24 1010.7 1009.9 0.0
19/03:00pm 29.2 22.8 -2.0 13 14.4 SSW 22 33 12 18 1010.8 1010.0 0.0
19/02:30pm 28.7 23.0 -0.5 15 13.8 S 19 35 10 19 1011.1 1010.3 0.0
19/02:00pm 28.6 22.1 0.3 16 13.5 SSW 24 35 13 19 1011.5 1010.7 0.0

Other Formats:

Comma delimited format used in spreadsheet applications
http://www.bom.gov.au/fwo/IDQ60801/IDQ60801.95487.axf

JavaScript Object Notation format (JSON) in row-major order
http://www.bom.gov.au/fwo/IDQ60801/IDQ60801.95487.json